Nesenie raksti

Ziņas

Par Gliding.lv

Gliding.lv ir interneta vietne par planieriem un planierismu. Šeit būs atrodama informācija par iespējām pamēģināt, iesaistīties un organizēt planierisma aktivitātes. Izmanto Gliding.lv forumu, ja Tev ir kāda tēma diskusijai vai jautājums. Gliding.lv merķis ir informēt un apvienot planierisma interesentus, nodrošinot un apmainoties ar aktuālāko un arī bijušo. Lidojam!

Laiks Rīgā
28°
few clouds
mitrums: 39%
vējš: 4m/s DDA
Aug 27 • Zem 19
18°
Tre
17°
Cet
12°
Pie
14°
Ses
Meteo-dati no OpenWeatherMap

METAR

EVRA 211420Z 17008KT 9999 SCT048 28/14 Q1009 NOSIG

EVLA 211420Z AUTO 31004KT 9999 NCD 27/17 Q1007

EVVA 211420Z AUTO 31006KT 9999 FEW018 28/15 Q1008

Nesenie raksti

Pāriet uz rīkjoslu